Time;durP1;ratioP1;P1;durP2;ratioP2;P2;SDS_P1;SDS_P2;PMS_P1;PMS_P2;Temp;Humidity;BMP_temperature;BMP_pressure;BME280_temperature;BME280_humidity;BME280_pressure;Samples;Min_cycle;Max_cycle;Signal;HPM_P1;HPM_P2
2022/01/18 00:09:25;;;;;;;42.55;21.17;;;;;;;3.46;100.00;102441.75;20871451;28;20067;-71
2022/01/18 00:19:26;;;;;;;44.78;20.95;;;;;;;3.48;100.00;102445.28;20869923;28;20099;-72
2022/01/18 00:29:29;;;;;;;47.38;21.95;;;;;;;3.39;100.00;102447.44;20868123;28;20391;-72
2022/01/18 00:39:31;;;;;;;47.00;22.23;;;;;;;3.20;100.00;102454.34;20867295;28;20101;-71
2022/01/18 00:49:40;;;;;;;45.78;21.50;;;;;;;3.23;100.00;102462.28;20867768;28;20107;-72
2022/01/18 00:59:42;;;;;;;46.00;22.00;;;;;;;3.38;100.00;102463.81;20862125;28;20106;-72
2022/01/18 01:09:51;;;;;;;45.22;22.55;;;;;;;3.43;100.00;102465.78;20861267;28;20133;-73
2022/01/18 01:51:04;;;;;;;42.75;21.83;;;;;;;3.53;100.00;102467.09;20946642;28;20057;-72
2022/01/18 02:01:07;;;;;;;50.42;22.48;;;;;;;3.59;100.00;102460.53;20944918;28;20551;-72
2022/01/18 02:11:09;;;;;;;49.67;22.27;;;;;;;3.59;100.00;102459.59;20943193;28;20057;-72
2022/01/18 02:31:31;;;;;;;46.03;22.30;;;;;;;3.64;100.00;102455.56;20940891;28;20044;-73
2022/01/18 02:41:34;;;;;;;51.80;22.27;;;;;;;3.63;100.00;102458.94;20943250;28;20482;-73
2022/01/18 02:51:36;;;;;;;51.45;22.35;;;;;;;3.67;100.00;102450.50;20937140;28;20391;-72
2022/01/18 03:11:58;;;;;;;47.38;22.55;;;;;;;3.72;100.00;102450.69;20937454;28;20056;-72
2022/01/18 03:22:00;;;;;;;44.03;21.23;;;;;;;3.74;100.00;102451.66;20940367;28;20505;-71
2022/01/18 03:32:03;;;;;;;48.40;23.48;;;;;;;3.79;100.00;102447.56;20938916;28;20053;-73
2022/01/18 03:52:25;;;;;;;45.45;22.02;;;;;;;3.80;100.00;102455.41;20938493;28;20074;-71
2022/01/18 04:02:27;;;;;;;48.97;22.80;;;;;;;3.77;100.00;102460.44;20938313;28;20099;-72
2022/01/18 04:12:29;;;;;;;53.97;22.80;;;;;;;3.79;100.00;102476.97;20954291;28;20048;-72
2022/01/18 04:32:50;;;;;;;48.90;23.83;;;;;;;3.81;100.00;102485.69;20950961;28;20037;-71
2022/01/18 04:52:54;;;;;;;44.47;21.80;;;;;;;3.76;100.00;102483.69;20951139;28;20046;-71
2022/01/18 05:02:55;;;;;;;49.03;23.40;;;;;;;3.77;100.00;102485.47;20947261;28;20547;-72
2022/01/18 05:13:01;;;;;;;50.80;23.67;;;;;;;3.77;100.00;102491.53;20947583;28;20144;-72
2022/01/18 05:23:04;;;;;;;53.33;23.58;;;;;;;3.79;100.00;102486.44;20946586;28;20543;-71
2022/01/18 05:33:08;;;;;;;51.40;24.73;;;;;;;3.72;100.00;102482.66;20947153;28;20761;-70
2022/01/18 05:43:09;;;;;;;49.70;22.83;;;;;;;3.70;100.00;102486.91;20947254;28;20098;-72
2022/01/18 05:53:10;;;;;;;53.42;25.48;;;;;;;3.63;100.00;102502.97;20947507;28;20075;-72
2022/01/18 06:03:16;;;;;;;45.42;21.00;;;;;;;3.57;100.00;102513.06;20940375;28;20048;-72
2022/01/18 06:13:18;;;;;;;50.15;23.02;;;;;;;3.50;100.00;102521.38;20940103;28;20053;-72
2022/01/18 06:23:20;;;;;;;47.65;23.63;;;;;;;3.52;100.00;102512.84;20943401;28;20049;-70
2022/01/18 06:33:22;;;;;;;55.35;24.95;;;;;;;3.45;100.00;102513.38;20941157;28;20044;-72
2022/01/18 06:43:24;;;;;;;52.50;23.58;;;;;;;3.40;100.00;102532.97;20942163;28;20494;-72
2022/01/18 06:53:31;;;;;;;49.42;22.38;;;;;;;3.39;100.00;102540.66;20941528;28;20055;-71
2022/01/18 07:03:32;;;;;;;48.85;24.25;;;;;;;3.44;100.00;102544.34;20939421;28;20086;-71
2022/01/18 07:13:34;;;;;;;51.35;23.52;;;;;;;3.43;100.00;102556.41;20941181;28;20494;-72
2022/01/18 07:23:40;;;;;;;48.38;24.40;;;;;;;3.51;100.00;102574.94;20936672;28;20051;-72
2022/01/18 07:33:44;;;;;;;58.23;26.43;;;;;;;3.51;100.00;102580.09;20939005;28;20053;-71
2022/01/18 07:43:45;;;;;;;56.40;26.02;;;;;;;3.59;100.00;102589.13;20948683;28;20055;-71
2022/01/18 07:53:47;;;;;;;50.75;24.00;;;;;;;3.62;100.00;102591.88;20950081;28;20429;-71
2022/01/18 08:03:48;;;;;;;50.67;25.25;;;;;;;3.70;100.00;102595.72;20936746;28;20075;-71
2022/01/18 08:13:50;;;;;;;56.47;25.88;;;;;;;3.76;100.00;102602.88;20942101;28;20110;-71
2022/01/18 08:23:52;;;;;;;59.53;29.95;;;;;;;3.91;100.00;102587.16;20943351;28;20066;-71
2022/01/18 08:33:54;;;;;;;68.20;32.90;;;;;;;4.08;100.00;102599.22;20919688;28;20053;-70
2022/01/18 08:43:55;;;;;;;68.47;32.33;;;;;;;3.97;100.00;102590.03;20915356;28;20044;-70
2022/01/18 08:53:57;;;;;;;55.55;27.58;;;;;;;4.14;100.00;102603.78;20913746;28;20134;-71
2022/01/18 09:04:01;;;;;;;50.80;24.13;;;;;;;4.31;100.00;102601.16;20910660;28;20418;-71
2022/01/18 09:14:02;;;;;;;48.20;23.85;;;;;;;4.47;100.00;102587.16;20933619;28;20057;-70
2022/01/18 09:24:05;;;;;;;55.88;25.02;;;;;;;4.63;100.00;102599.97;20940614;28;20045;-70
2022/01/18 09:34:06;;;;;;;48.63;23.75;;;;;;;4.73;100.00;102602.97;20935125;28;20106;-70
2022/01/18 09:44:08;;;;;;;51.17;24.77;;;;;;;4.90;100.00;102614.97;20937937;28;20048;-70
2022/01/18 09:54:10;;;;;;;47.65;24.45;;;;;;;5.09;100.00;102611.44;20935915;28;20434;-70
2022/01/18 10:04:14;;;;;;;50.17;23.75;;;;;;;5.12;100.00;102615.03;20916380;28;20049;-69
2022/01/18 10:14:19;;;;;;;45.00;24.80;;;;;;;5.21;100.00;102608.47;20928760;28;20041;-71
2022/01/18 10:24:25;;;;;;;;;;;;;;;5.30;100.00;102601.06;20932368;28;20125;-72
2022/01/18 10:34:42;;;;;;;47.90;21.25;;;;;;;5.63;100.00;102601.53;20930974;28;19971;-73
2022/01/18 10:44:56;;;;;;;40.92;21.20;;;;;;;5.89;100.00;102590.47;20933600;28;20052;-73
2022/01/18 10:54:59;;;;;;;45.20;21.83;;;;;;;6.07;98.25;102573.78;20931789;28;20266;-73
2022/01/18 11:05:12;;;;;;;39.53;19.88;;;;;;;5.88;98.99;102559.19;20928760;28;20068;-72
2022/01/18 11:15:18;;;;;;;38.42;20.13;;;;;;;5.91;99.59;102541.09;20939011;28;20045;-71
2022/01/18 11:25:22;;;;;;;36.85;18.30;;;;;;;6.12;97.95;102546.25;20950097;28;20098;-72
2022/01/18 11:35:38;;;;;;;28.88;14.98;;;;;;;6.19;95.01;102534.38;20947835;28;20469;-73
2022/01/18 11:45:42;;;;;;;26.25;15.05;;;;;;;6.51;95.87;102527.69;20945487;28;20118;-72
2022/01/18 11:55:45;;;;;;;24.67;11.87;;;;;;;6.43;92.49;102524.84;20942985;28;20053;-70
2022/01/18 12:05:46;;;;;;;21.67;10.48;;;;;;;6.57;91.34;102504.50;20947069;28;20535;-71
2022/01/18 12:15:50;;;;;;;19.92;10.27;;;;;;;6.48;92.16;102492.06;20942843;28;20041;-70
2022/01/18 12:25:56;;;;;;;19.90;9.10;;;;;;;6.60;92.19;102494.19;20941153;28;20041;-71
2022/01/18 12:36:29;;;;;;;18.58;9.60;;;;;;;6.65;88.49;102484.81;20938211;28;20051;-71
2022/01/18 12:46:31;;;;;;;13.48;5.97;;;;;;;6.85;85.64;102491.59;20942218;28;20489;-72
2022/01/18 12:56:33;;;;;;;26.92;13.57;;;;;;;6.76;88.16;102479.97;20939805;28;20041;-72
2022/01/18 13:06:35;;;;;;;26.15;11.90;;;;;;;6.93;87.25;102478.78;20939693;28;20106;-72
2022/01/18 13:26:52;;;;;;;14.98;7.38;;;;;;;6.66;87.47;102474.47;20939088;28;20057;-73
2022/01/18 13:36:55;;;;;;;31.13;12.55;;;;;;;6.48;86.51;102463.44;20937344;28;20048;-73
2022/01/18 13:47:19;;;;;;;16.20;6.35;;;;;;;6.37;84.93;102467.34;20938895;28;20106;-74
2022/01/18 13:57:22;;;;;;;11.85;3.97;;;;;;;6.40;81.80;102457.94;20932010;28;20049;-70
2022/01/18 14:07:26;;;;;;;12.93;5.32;;;;;;;6.48;83.01;102454.75;20933752;28;20505;-70
2022/01/18 14:17:27;;;;;;;10.17;5.30;;;;;;;6.40;80.35;102464.88;20934320;28;20057;-71
2022/01/18 14:27:32;;;;;;;8.13;3.00;;;;;;;6.37;79.34;102452.66;20932938;28;20048;-71
2022/01/18 14:37:41;;;;;;;7.00;3.20;;;;;;;6.43;77.96;102454.59;20933384;28;20052;-70
2022/01/18 14:47:43;;;;;;;8.93;3.90;;;;;;;6.40;79.63;102444.94;20933197;28;20185;-70
2022/01/18 14:57:46;;;;;;;7.28;2.80;;;;;;;6.35;80.53;102436.09;20932257;28;20048;-71
2022/01/18 15:07:48;;;;;;;7.43;3.20;;;;;;;6.32;79.85;102422.09;20928398;28;20489;-71
2022/01/18 15:17:50;;;;;;;14.60;5.88;;;;;;;6.24;80.50;102410.56;20932347;28;20106;-70
2022/01/18 15:27:52;;;;;;;9.75;4.05;;;;;;;6.16;81.01;102402.47;20933069;28;20339;-70
2022/01/18 15:37:54;;;;;;;8.10;3.40;;;;;;;6.12;83.25;102411.00;20932397;28;20052;-71
2022/01/18 15:47:56;;;;;;;8.10;3.35;;;;;;;6.14;82.72;102402.44;20927144;28;20044;-71
2022/01/18 15:58:02;;;;;;;11.50;5.63;;;;;;;6.10;83.50;102389.28;20929410;28;20056;-71
2022/01/18 16:08:04;;;;;;;13.20;7.53;;;;;;;5.97;85.22;102389.66;20942396;28;20041;-71
2022/01/18 16:18:06;;;;;;;14.90;6.28;;;;;;;6.01;83.96;102396.75;20945310;28;20049;-70
2022/01/18 16:28:07;;;;;;;14.45;7.00;;;;;;;5.94;84.43;102390.47;20942363;28;20053;-72
2022/01/18 16:38:09;;;;;;;14.30;6.70;;;;;;;5.84;86.65;102401.31;20941459;28;20162;-70
2022/01/18 16:48:11;;;;;;;18.80;8.20;;;;;;;5.80;86.10;102405.53;20941456;28;20041;-70
2022/01/18 16:58:12;;;;;;;22.20;11.43;;;;;;;5.86;85.86;102402.25;20942221;28;20048;-71
2022/01/18 17:08:14;;;;;;;14.50;6.25;;;;;;;5.77;88.59;102404.53;20937459;28;20049;-71
2022/01/18 17:18:15;;;;;;;16.13;8.15;;;;;;;5.79;87.24;102405.47;20940847;28;20045;-70
2022/01/18 17:28:17;;;;;;;14.95;7.13;;;;;;;5.79;87.99;102410.66;20939622;28;20251;-73
2022/01/18 17:38:19;;;;;;;10.90;5.68;;;;;;;5.66;89.60;102406.75;20939851;28;20040;-71
2022/01/18 17:48:21;;;;;;;14.38;6.93;;;;;;;5.80;85.67;102405.53;20933049;28;20052;-71
2022/01/18 17:58:23;;;;;;;11.32;5.57;;;;;;;5.68;85.42;102401.59;20934771;28;20056;-70
2022/01/18 18:08:25;;;;;;;13.70;7.03;;;;;;;5.64;84.40;102378.09;20933459;28;20041;-70
2022/01/18 18:18:26;;;;;;;11.23;5.20;;;;;;;5.65;84.46;102391.97;20934041;28;20928;-70
2022/01/18 18:28:28;;;;;;;12.52;6.40;;;;;;;5.68;81.52;102380.81;20928904;28;20049;-70
2022/01/18 18:38:39;;;;;;;8.48;4.53;;;;;;;5.68;79.45;102373.91;20914704;28;20080;-71
2022/01/18 18:48:41;;;;;;;9.98;4.53;;;;;;;5.62;81.02;102355.50;20922974;28;20049;-71
2022/01/18 18:59:05;;;;;;;10.43;5.03;;;;;;;5.63;80.47;102318.28;20930033;28;20045;-70
2022/01/18 19:09:05;;;;;;;9.60;4.28;;;;;;;5.69;79.42;102341.88;20926402;28;20063;-72
2022/01/18 19:19:08;;;;;;;9.18;3.85;;;;;;;5.64;80.67;102353.81;20931280;28;20056;-70
2022/01/18 19:29:10;;;;;;;10.05;3.88;;;;;;;5.59;82.04;102334.59;20930123;28;20737;-70
2022/01/18 19:39:12;;;;;;;11.27;4.95;;;;;;;5.54;83.15;102338.72;20937251;28;20087;-70
2022/01/18 19:49:13;;;;;;;14.20;5.20;;;;;;;5.50;83.17;102305.66;20944529;28;20060;-70
2022/01/18 19:59:15;;;;;;;12.15;5.13;;;;;;;5.48;83.71;102287.44;20944455;28;20458;-69
2022/01/18 20:09:17;;;;;;;10.10;5.15;;;;;;;5.48;83.01;102268.38;20943265;28;20048;-71
2022/01/18 20:19:19;;;;;;;9.93;4.93;;;;;;;5.44;82.79;102261.31;20944657;28;20406;-69
2022/01/18 20:29:20;;;;;;;12.32;5.07;;;;;;;5.39;82.82;102246.44;20941741;28;20122;-68
2022/01/18 20:39:29;;;;;;;7.88;3.92;;;;;;;5.36;82.82;102230.72;20935266;28;20052;-69
2022/01/18 20:49:31;;;;;;;7.50;4.10;;;;;;;5.39;81.14;102230.84;20939624;28;20052;-68
2022/01/18 20:59:32;;;;;;;9.77;4.55;;;;;;;5.29;81.64;102207.97;20939274;28;20069;-68
2022/01/18 21:09:35;;;;;;;9.98;4.30;;;;;;;5.11;82.72;102183.97;20938626;28;20456;-68
2022/01/18 21:19:36;;;;;;;9.55;3.60;;;;;;;5.08;82.55;102152.72;20937958;28;20075;-68
2022/01/18 21:29:40;;;;;;;10.45;5.07;;;;;;;5.10;81.26;102148.44;20939005;28;20048;-68
2022/01/18 21:39:41;;;;;;;7.55;4.00;;;;;;;5.07;82.16;102171.69;20935256;28;20175;-68
2022/01/18 21:49:43;;;;;;;7.97;3.92;;;;;;;5.14;82.05;102165.91;20932279;28;20052;-69
2022/01/18 21:59:47;;;;;;;7.13;3.85;;;;;;;5.05;81.44;102181.16;20933945;28;20106;-69
2022/01/18 22:09:49;;;;;;;;;;;;;;;5.03;81.48;102169.81;20933100;28;20056;-70
2022/01/18 22:19:52;;;;;;;9.40;3.83;;;;;;;4.98;81.63;102164.47;20934866;28;20265;-72
2022/01/18 22:29:54;;;;;;;10.05;5.38;;;;;;;4.96;81.19;102142.78;20932366;28;20449;-73
2022/01/18 22:39:55;;;;;;;9.65;4.78;;;;;;;5.00;81.71;102143.78;20931449;28;20143;-73
2022/01/18 22:50:00;;;;;;;10.20;5.18;;;;;;;4.96;83.25;102149.69;20936405;28;20095;-73
2022/01/18 23:00:09;;;;;;;11.80;5.80;;;;;;;5.03;80.23;102125.69;20932099;28;20053;-71
2022/01/18 23:10:11;;;;;;;10.27;5.68;;;;;;;4.91;81.05;102128.75;20946629;28;20127;-71
2022/01/18 23:20:13;;;;;;;10.70;5.65;;;;;;;4.88;79.51;102129.50;20968357;28;20056;-71
2022/01/18 23:30:14;;;;;;;10.52;5.25;;;;;;;4.80;82.28;102130.09;20966269;28;20050;-71
2022/01/18 23:50:36;;;;;;;11.32;5.72;;;;;;;4.43;82.85;102101.94;20964273;28;20262;-71
